sensor_id;sensor_type;location;lat;lon;timestamp;temperature;humidity
52415;DHT22;38340;52.964;6.086;2023-11-21T00:00:19;9.30;99.90
52415;DHT22;38340;52.964;6.086;2023-11-21T00:02:45;9.30;99.90
52415;DHT22;38340;52.964;6.086;2023-11-21T00:05:12;9.30;99.90
52415;DHT22;38340;52.964;6.086;2023-11-21T00:07:43;9.30;99.90
52415;DHT22;38340;52.964;6.086;2023-11-21T00:10:09;9.30;99.90
52415;DHT22;38340;52.964;6.086;2023-11-21T00:12:36;9.30;99.90
52415;DHT22;38340;52.964;6.086;2023-11-21T00:15:02;9.30;99.90
52415;DHT22;38340;52.964;6.086;2023-11-21T00:17:30;9.30;99.90
52415;DHT22;38340;52.964;6.086;2023-11-21T00:19:56;9.30;99.90
52415;DHT22;38340;52.964;6.086;2023-11-21T00:22:22;9.30;99.90
52415;DHT22;38340;52.964;6.086;2023-11-21T00:24:47;9.30;99.90
52415;DHT22;38340;52.964;6.086;2023-11-21T00:27:13;9.30;99.90
52415;DHT22;38340;52.964;6.086;2023-11-21T00:29:40;9.20;99.90
52415;DHT22;38340;52.964;6.086;2023-11-21T00:32:06;9.20;99.90
52415;DHT22;38340;52.964;6.086;2023-11-21T00:34:32;9.30;99.90
52415;DHT22;38340;52.964;6.086;2023-11-21T00:36:58;9.30;99.90
52415;DHT22;38340;52.964;6.086;2023-11-21T00:39:24;9.30;99.90
52415;DHT22;38340;52.964;6.086;2023-11-21T00:41:51;9.30;99.90
52415;DHT22;38340;52.964;6.086;2023-11-21T00:44:17;9.40;99.90
52415;DHT22;38340;52.964;6.086;2023-11-21T00:46:42;9.30;99.90
52415;DHT22;38340;52.964;6.086;2023-11-21T00:49:08;9.40;99.90
52415;DHT22;38340;52.964;6.086;2023-11-21T00:51:34;9.40;99.90
52415;DHT22;38340;52.964;6.086;2023-11-21T00:54:00;9.40;99.90
52415;DHT22;38340;52.964;6.086;2023-11-21T00:56:26;9.40;99.90
52415;DHT22;38340;52.964;6.086;2023-11-21T00:58:52;9.40;99.90
52415;DHT22;38340;52.964;6.086;2023-11-21T01:01:19;9.40;99.90
52415;DHT22;38340;52.964;6.086;2023-11-21T01:03:48;9.40;99.90
52415;DHT22;38340;52.964;6.086;2023-11-21T01:06:15;9.50;99.90
52415;DHT22;38340;52.964;6.086;2023-11-21T01:08:41;9.40;99.90
52415;DHT22;38340;52.964;6.086;2023-11-21T01:11:06;9.40;99.90
52415;DHT22;38340;52.964;6.086;2023-11-21T01:13:38;9.40;99.90
52415;DHT22;38340;52.964;6.086;2023-11-21T01:16:05;9.40;99.90
52415;DHT22;38340;52.964;6.086;2023-11-21T01:18:32;9.40;99.90
52415;DHT22;38340;52.964;6.086;2023-11-21T01:20:58;9.50;99.90
52415;DHT22;38340;52.964;6.086;2023-11-21T01:23:24;9.40;99.90
52415;DHT22;38340;52.964;6.086;2023-11-21T01:25:50;9.40;99.90
52415;DHT22;38340;52.964;6.086;2023-11-21T01:28:17;9.40;99.90
52415;DHT22;38340;52.964;6.086;2023-11-21T01:30:42;9.40;99.90
52415;DHT22;38340;52.964;6.086;2023-11-21T01:33:09;9.40;99.90
52415;DHT22;38340;52.964;6.086;2023-11-21T01:35:35;9.50;99.90
52415;DHT22;38340;52.964;6.086;2023-11-21T01:38:01;9.50;99.90
52415;DHT22;38340;52.964;6.086;2023-11-21T01:40:27;9.50;99.90
52415;DHT22;38340;52.964;6.086;2023-11-21T01:42:54;9.50;99.90
52415;DHT22;38340;52.964;6.086;2023-11-21T01:45:20;9.50;99.90
52415;DHT22;38340;52.964;6.086;2023-11-21T01:47:45;9.50;99.90
52415;DHT22;38340;52.964;6.086;2023-11-21T01:50:15;9.50;99.90
52415;DHT22;38340;52.964;6.086;2023-11-21T01:52:42;9.50;99.90
52415;DHT22;38340;52.964;6.086;2023-11-21T01:55:09;9.50;99.90
52415;DHT22;38340;52.964;6.086;2023-11-21T01:57:36;9.60;99.90
52415;DHT22;38340;52.964;6.086;2023-11-21T02:00:03;9.60;99.90
52415;DHT22;38340;52.964;6.086;2023-11-21T02:02:47;9.50;99.90
52415;DHT22;38340;52.964;6.086;2023-11-21T02:05:15;9.60;99.90
52415;DHT22;38340;52.964;6.086;2023-11-21T02:07:44;9.60;99.90
52415;DHT22;38340;52.964;6.086;2023-11-21T02:10:10;9.60;99.90
52415;DHT22;38340;52.964;6.086;2023-11-21T02:12:40;9.60;99.90
52415;DHT22;38340;52.964;6.086;2023-11-21T02:15:09;9.60;99.90
52415;DHT22;38340;52.964;6.086;2023-11-21T02:17:43;9.60;99.90
52415;DHT22;38340;52.964;6.086;2023-11-21T02:20:13;9.60;99.90
52415;DHT22;38340;52.964;6.086;2023-11-21T02:25:11;9.70;99.90
52415;DHT22;38340;52.964;6.086;2023-11-21T02:27:37;9.70;99.90
52415;DHT22;38340;52.964;6.086;2023-11-21T02:30:03;9.70;99.90
52415;DHT22;38340;52.964;6.086;2023-11-21T02:32:30;9.70;99.90
52415;DHT22;38340;52.964;6.086;2023-11-21T02:34:57;9.80;99.90
52415;DHT22;38340;52.964;6.086;2023-11-21T02:37:26;9.80;99.90
52415;DHT22;38340;52.964;6.086;2023-11-21T02:39:52;9.70;99.90
52415;DHT22;38340;52.964;6.086;2023-11-21T02:42:18;9.70;99.90
52415;DHT22;38340;52.964;6.086;2023-11-21T02:44:44;9.80;99.90
52415;DHT22;38340;52.964;6.086;2023-11-21T02:47:10;9.80;99.90
52415;DHT22;38340;52.964;6.086;2023-11-21T02:49:35;9.80;99.90
52415;DHT22;38340;52.964;6.086;2023-11-21T02:52:01;9.70;99.90
52415;DHT22;38340;52.964;6.086;2023-11-21T02:54:27;9.70;99.90
52415;DHT22;38340;52.964;6.086;2023-11-21T02:56:53;9.90;99.90
52415;DHT22;38340;52.964;6.086;2023-11-21T02:59:18;9.90;99.90
52415;DHT22;38340;52.964;6.086;2023-11-21T03:01:45;9.80;99.90
52415;DHT22;38340;52.964;6.086;2023-11-21T03:04:11;9.80;99.90
52415;DHT22;38340;52.964;6.086;2023-11-21T03:06:43;9.90;99.90
52415;DHT22;38340;52.964;6.086;2023-11-21T03:09:09;9.90;99.90
52415;DHT22;38340;52.964;6.086;2023-11-21T03:11:35;9.90;99.90
52415;DHT22;38340;52.964;6.086;2023-11-21T03:14:01;9.90;99.90
52415;DHT22;38340;52.964;6.086;2023-11-21T03:16:26;9.90;99.90
52415;DHT22;38340;52.964;6.086;2023-11-21T03:18:52;9.90;99.90
52415;DHT22;38340;52.964;6.086;2023-11-21T03:21:18;9.90;99.90
52415;DHT22;38340;52.964;6.086;2023-11-21T03:23:44;9.90;99.90
52415;DHT22;38340;52.964;6.086;2023-11-21T03:26:13;9.90;99.90
52415;DHT22;38340;52.964;6.086;2023-11-21T03:28:39;10.00;99.90
52415;DHT22;38340;52.964;6.086;2023-11-21T03:31:05;10.00;99.90
52415;DHT22;38340;52.964;6.086;2023-11-21T03:33:32;9.90;99.90
52415;DHT22;38340;52.964;6.086;2023-11-21T03:35:58;10.00;99.90
52415;DHT22;38340;52.964;6.086;2023-11-21T03:38:23;10.00;99.90
52415;DHT22;38340;52.964;6.086;2023-11-21T03:40:49;10.00;99.90
52415;DHT22;38340;52.964;6.086;2023-11-21T03:43:16;10.00;99.90
52415;DHT22;38340;52.964;6.086;2023-11-21T03:45:41;10.10;99.90
52415;DHT22;38340;52.964;6.086;2023-11-21T03:48:08;10.00;99.90
52415;DHT22;38340;52.964;6.086;2023-11-21T03:50:34;10.00;99.90
52415;DHT22;38340;52.964;6.086;2023-11-21T03:53:00;10.00;99.90
52415;DHT22;38340;52.964;6.086;2023-11-21T03:55:26;10.10;99.90
52415;DHT22;38340;52.964;6.086;2023-11-21T03:57:52;10.00;99.90
52415;DHT22;38340;52.964;6.086;2023-11-21T04:00:18;10.00;99.90
52415;DHT22;38340;52.964;6.086;2023-11-21T04:02:45;10.00;99.90
52415;DHT22;38340;52.964;6.086;2023-11-21T04:05:11;10.00;99.90
52415;DHT22;38340;52.964;6.086;2023-11-21T04:07:37;10.10;99.90
52415;DHT22;38340;52.964;6.086;2023-11-21T04:10:05;10.10;99.90
52415;DHT22;38340;52.964;6.086;2023-11-21T04:12:34;10.00;99.90
52415;DHT22;38340;52.964;6.086;2023-11-21T04:15:00;10.00;99.90
52415;DHT22;38340;52.964;6.086;2023-11-21T04:17:25;10.00;99.90
52415;DHT22;38340;52.964;6.086;2023-11-21T04:19:51;10.10;99.90
52415;DHT22;38340;52.964;6.086;2023-11-21T04:22:17;10.10;99.90
52415;DHT22;38340;52.964;6.086;2023-11-21T04:24:43;10.10;99.90
52415;DHT22;38340;52.964;6.086;2023-11-21T04:27:08;10.00;99.90
52415;DHT22;38340;52.964;6.086;2023-11-21T04:29:34;10.10;99.90
52415;DHT22;38340;52.964;6.086;2023-11-21T04:32:01;10.10;99.90
52415;DHT22;38340;52.964;6.086;2023-11-21T04:34:28;10.10;99.90
52415;DHT22;38340;52.964;6.086;2023-11-21T04:36:56;10.10;99.90
52415;DHT22;38340;52.964;6.086;2023-11-21T04:39:22;10.00;99.90
52415;DHT22;38340;52.964;6.086;2023-11-21T04:41:48;10.00;99.90
52415;DHT22;38340;52.964;6.086;2023-11-21T04:44:14;10.00;99.90
52415;DHT22;38340;52.964;6.086;2023-11-21T04:46:41;10.00;99.90
52415;DHT22;38340;52.964;6.086;2023-11-21T04:49:07;10.00;99.90
52415;DHT22;38340;52.964;6.086;2023-11-21T04:51:33;10.10;99.90
52415;DHT22;38340;52.964;6.086;2023-11-21T04:53:59;10.00;99.90
52415;DHT22;38340;52.964;6.086;2023-11-21T04:56:24;10.00;99.90
52415;DHT22;38340;52.964;6.086;2023-11-21T04:58:50;10.00;99.90
52415;DHT22;38340;52.964;6.086;2023-11-21T05:01:16;10.00;99.90
52415;DHT22;38340;52.964;6.086;2023-11-21T05:03:42;10.00;99.90
52415;DHT22;38340;52.964;6.086;2023-11-21T05:06:10;10.00;99.90
52415;DHT22;38340;52.964;6.086;2023-11-21T05:08:36;10.00;99.90
52415;DHT22;38340;52.964;6.086;2023-11-21T05:11:02;10.00;99.90
52415;DHT22;38340;52.964;6.086;2023-11-21T05:13:28;10.00;99.90
52415;DHT22;38340;52.964;6.086;2023-11-21T05:15:54;10.00;99.90
52415;DHT22;38340;52.964;6.086;2023-11-21T05:18:22;10.00;99.90
52415;DHT22;38340;52.964;6.086;2023-11-21T05:20:48;10.00;99.90
52415;DHT22;38340;52.964;6.086;2023-11-21T05:23:14;10.00;99.90
52415;DHT22;38340;52.964;6.086;2023-11-21T05:25:40;10.00;99.90
52415;DHT22;38340;52.964;6.086;2023-11-21T05:28:07;9.90;99.90
52415;DHT22;38340;52.964;6.086;2023-11-21T05:30:32;10.00;99.90
52415;DHT22;38340;52.964;6.086;2023-11-21T05:32:58;9.90;99.90
52415;DHT22;38340;52.964;6.086;2023-11-21T05:35:24;9.90;99.90
52415;DHT22;38340;52.964;6.086;2023-11-21T05:37:49;9.90;99.90
52415;DHT22;38340;52.964;6.086;2023-11-21T05:40:15;9.90;99.90
52415;DHT22;38340;52.964;6.086;2023-11-21T05:42:41;9.90;99.90
52415;DHT22;38340;52.964;6.086;2023-11-21T05:45:07;9.90;99.90
52415;DHT22;38340;52.964;6.086;2023-11-21T05:47:46;9.90;99.90
52415;DHT22;38340;52.964;6.086;2023-11-21T05:50:13;9.90;99.90
52415;DHT22;38340;52.964;6.086;2023-11-21T05:52:46;9.90;99.90
52415;DHT22;38340;52.964;6.086;2023-11-21T05:55:13;9.90;99.90
52415;DHT22;38340;52.964;6.086;2023-11-21T05:57:39;9.90;99.90
52415;DHT22;38340;52.964;6.086;2023-11-21T06:00:07;9.90;99.90
52415;DHT22;38340;52.964;6.086;2023-11-21T06:02:49;9.90;99.90
52415;DHT22;38340;52.964;6.086;2023-11-21T06:05:24;9.80;99.90
52415;DHT22;38340;52.964;6.086;2023-11-21T06:07:51;9.80;99.90
52415;DHT22;38340;52.964;6.086;2023-11-21T06:10:20;9.80;99.90
52415;DHT22;38340;52.964;6.086;2023-11-21T06:12:46;9.80;99.90
52415;DHT22;38340;52.964;6.086;2023-11-21T06:15:12;9.80;99.90
52415;DHT22;38340;52.964;6.086;2023-11-21T06:17:41;9.80;99.90
52415;DHT22;38340;52.964;6.086;2023-11-21T06:20:09;9.80;99.90
52415;DHT22;38340;52.964;6.086;2023-11-21T06:22:39;9.80;99.90
52415;DHT22;38340;52.964;6.086;2023-11-21T06:25:05;9.80;99.90
52415;DHT22;38340;52.964;6.086;2023-11-21T06:27:39;9.80;99.90
52415;DHT22;38340;52.964;6.086;2023-11-21T06:30:06;9.80;99.90
52415;DHT22;38340;52.964;6.086;2023-11-21T06:32:32;9.80;99.90
52415;DHT22;38340;52.964;6.086;2023-11-21T06:34:58;9.80;99.90
52415;DHT22;38340;52.964;6.086;2023-11-21T06:37:27;9.80;99.90
52415;DHT22;38340;52.964;6.086;2023-11-21T06:39:53;9.70;99.90
52415;DHT22;38340;52.964;6.086;2023-11-21T06:42:19;9.80;99.90
52415;DHT22;38340;52.964;6.086;2023-11-21T06:44:46;9.80;99.90
52415;DHT22;38340;52.964;6.086;2023-11-21T06:47:11;9.80;99.90
52415;DHT22;38340;52.964;6.086;2023-11-21T06:49:37;9.80;99.90
52415;DHT22;38340;52.964;6.086;2023-11-21T06:52:04;9.70;99.90
52415;DHT22;38340;52.964;6.086;2023-11-21T06:54:33;9.70;99.90
52415;DHT22;38340;52.964;6.086;2023-11-21T06:56:59;9.70;99.90
52415;DHT22;38340;52.964;6.086;2023-11-21T06:59:25;9.70;99.90
52415;DHT22;38340;52.964;6.086;2023-11-21T07:01:50;9.60;99.90
52415;DHT22;38340;52.964;6.086;2023-11-21T07:04:16;9.60;99.90
52415;DHT22;38340;52.964;6.086;2023-11-21T07:06:42;9.60;99.90
52415;DHT22;38340;52.964;6.086;2023-11-21T07:09:09;9.60;99.90
52415;DHT22;38340;52.964;6.086;2023-11-21T07:11:35;9.60;99.90
52415;DHT22;38340;52.964;6.086;2023-11-21T07:14:00;9.70;99.90
52415;DHT22;38340;52.964;6.086;2023-11-21T07:16:36;9.60;99.90
52415;DHT22;38340;52.964;6.086;2023-11-21T07:19:06;9.60;99.90
52415;DHT22;38340;52.964;6.086;2023-11-21T07:21:36;9.60;99.90
52415;DHT22;38340;52.964;6.086;2023-11-21T07:24:03;9.60;99.90
52415;DHT22;38340;52.964;6.086;2023-11-21T07:26:30;9.60;99.90
52415;DHT22;38340;52.964;6.086;2023-11-21T07:28:56;9.60;99.90
52415;DHT22;38340;52.964;6.086;2023-11-21T07:31:22;9.60;99.90
52415;DHT22;38340;52.964;6.086;2023-11-21T07:33:50;9.60;99.90
52415;DHT22;38340;52.964;6.086;2023-11-21T07:36:16;9.60;99.90
52415;DHT22;38340;52.964;6.086;2023-11-21T07:38:49;9.60;99.90
52415;DHT22;38340;52.964;6.086;2023-11-21T07:41:15;9.60;99.90
52415;DHT22;38340;52.964;6.086;2023-11-21T07:43:43;9.60;99.90
52415;DHT22;38340;52.964;6.086;2023-11-21T07:46:10;9.50;99.90
52415;DHT22;38340;52.964;6.086;2023-11-21T07:48:40;9.60;99.90
52415;DHT22;38340;52.964;6.086;2023-11-21T07:51:07;9.60;99.90
52415;DHT22;38340;52.964;6.086;2023-11-21T07:53:34;9.60;99.90
52415;DHT22;38340;52.964;6.086;2023-11-21T07:56:06;9.60;99.90
52415;DHT22;38340;52.964;6.086;2023-11-21T07:58:33;9.60;99.90
52415;DHT22;38340;52.964;6.086;2023-11-21T08:00:59;9.70;99.90
52415;DHT22;38340;52.964;6.086;2023-11-21T08:03:25;9.60;99.90
52415;DHT22;38340;52.964;6.086;2023-11-21T08:05:52;9.70;99.90
52415;DHT22;38340;52.964;6.086;2023-11-21T08:08:18;9.60;99.90
52415;DHT22;38340;52.964;6.086;2023-11-21T08:10:44;9.70;99.90
52415;DHT22;38340;52.964;6.086;2023-11-21T08:13:22;9.70;99.90
52415;DHT22;38340;52.964;6.086;2023-11-21T08:15:48;9.60;99.90
52415;DHT22;38340;52.964;6.086;2023-11-21T08:18:13;9.70;99.90
52415;DHT22;38340;52.964;6.086;2023-11-21T08:20:40;9.70;99.90
52415;DHT22;38340;52.964;6.086;2023-11-21T08:23:06;9.70;99.90
52415;DHT22;38340;52.964;6.086;2023-11-21T08:25:32;9.60;99.90
52415;DHT22;38340;52.964;6.086;2023-11-21T08:27:59;9.60;99.90
52415;DHT22;38340;52.964;6.086;2023-11-21T08:30:25;9.70;99.90
52415;DHT22;38340;52.964;6.086;2023-11-21T08:32:50;9.60;99.90
52415;DHT22;38340;52.964;6.086;2023-11-21T08:35:19;9.60;99.90
52415;DHT22;38340;52.964;6.086;2023-11-21T08:37:45;9.60;99.90
52415;DHT22;38340;52.964;6.086;2023-11-21T08:40:11;9.70;99.90
52415;DHT22;38340;52.964;6.086;2023-11-21T08:42:42;9.70;99.90
52415;DHT22;38340;52.964;6.086;2023-11-21T08:45:08;9.60;99.90
52415;DHT22;38340;52.964;6.086;2023-11-21T08:47:35;9.60;99.90
52415;DHT22;38340;52.964;6.086;2023-11-21T08:50:02;9.60;99.90
52415;DHT22;38340;52.964;6.086;2023-11-21T08:52:28;9.50;99.90
52415;DHT22;38340;52.964;6.086;2023-11-21T08:54:53;9.50;99.90
52415;DHT22;38340;52.964;6.086;2023-11-21T08:57:25;9.40;99.90
52415;DHT22;38340;52.964;6.086;2023-11-21T08:59:51;9.40;99.90
52415;DHT22;38340;52.964;6.086;2023-11-21T09:02:26;9.30;99.90
52415;DHT22;38340;52.964;6.086;2023-11-21T09:04:52;9.20;99.90
52415;DHT22;38340;52.964;6.086;2023-11-21T09:07:20;9.20;99.90
52415;DHT22;38340;52.964;6.086;2023-11-21T09:09:47;9.20;99.90
52415;DHT22;38340;52.964;6.086;2023-11-21T09:12:13;9.10;99.90
52415;DHT22;38340;52.964;6.086;2023-11-21T09:14:39;9.10;99.90
52415;DHT22;38340;52.964;6.086;2023-11-21T09:17:05;9.20;99.90
52415;DHT22;38340;52.964;6.086;2023-11-21T09:19:40;9.10;99.90
52415;DHT22;38340;52.964;6.086;2023-11-21T09:22:06;9.20;99.90
52415;DHT22;38340;52.964;6.086;2023-11-21T09:24:32;9.10;99.90
52415;DHT22;38340;52.964;6.086;2023-11-21T09:26:58;9.20;99.90
52415;DHT22;38340;52.964;6.086;2023-11-21T09:29:28;9.30;99.90
52415;DHT22;38340;52.964;6.086;2023-11-21T09:31:54;9.30;99.90
52415;DHT22;38340;52.964;6.086;2023-11-21T09:34:21;9.30;99.90
52415;DHT22;38340;52.964;6.086;2023-11-21T09:36:47;9.30;99.90
52415;DHT22;38340;52.964;6.086;2023-11-21T09:39:16;9.30;99.90
52415;DHT22;38340;52.964;6.086;2023-11-21T09:41:49;9.30;99.90
52415;DHT22;38340;52.964;6.086;2023-11-21T09:44:18;9.30;99.90
52415;DHT22;38340;52.964;6.086;2023-11-21T09:46:48;9.30;99.90
52415;DHT22;38340;52.964;6.086;2023-11-21T09:49:18;9.30;99.90
52415;DHT22;38340;52.964;6.086;2023-11-21T09:51:48;9.20;99.90
52415;DHT22;38340;52.964;6.086;2023-11-21T09:54:16;9.20;99.90
52415;DHT22;38340;52.964;6.086;2023-11-21T09:56:43;9.20;99.90
52415;DHT22;38340;52.964;6.086;2023-11-21T09:59:13;9.20;99.90
52415;DHT22;38340;52.964;6.086;2023-11-21T10:01:41;9.20;99.90
52415;DHT22;38340;52.964;6.086;2023-11-21T10:04:08;9.20;99.90
52415;DHT22;38340;52.964;6.086;2023-11-21T10:06:41;9.20;99.90
52415;DHT22;38340;52.964;6.086;2023-11-21T10:09:12;9.20;99.90
52415;DHT22;38340;52.964;6.086;2023-11-21T10:11:43;9.20;99.90
52415;DHT22;38340;52.964;6.086;2023-11-21T10:14:12;9.20;99.90
52415;DHT22;38340;52.964;6.086;2023-11-21T10:16:40;9.30;99.90
52415;DHT22;38340;52.964;6.086;2023-11-21T10:19:10;9.30;99.90
52415;DHT22;38340;52.964;6.086;2023-11-21T10:21:37;9.10;99.90
52415;DHT22;38340;52.964;6.086;2023-11-21T10:24:03;9.20;99.90
52415;DHT22;38340;52.964;6.086;2023-11-21T10:26:29;9.20;99.90
52415;DHT22;38340;52.964;6.086;2023-11-21T10:28:58;9.20;99.90
52415;DHT22;38340;52.964;6.086;2023-11-21T10:31:27;9.20;99.90
52415;DHT22;38340;52.964;6.086;2023-11-21T10:33:53;9.20;99.90
52415;DHT22;38340;52.964;6.086;2023-11-21T10:36:28;9.20;99.90
52415;DHT22;38340;52.964;6.086;2023-11-21T10:38:54;9.10;99.90
52415;DHT22;38340;52.964;6.086;2023-11-21T10:41:23;9.20;99.90
52415;DHT22;38340;52.964;6.086;2023-11-21T10:43:53;9.10;99.90
52415;DHT22;38340;52.964;6.086;2023-11-21T10:46:20;9.10;99.90
52415;DHT22;38340;52.964;6.086;2023-11-21T10:48:46;9.10;99.90
52415;DHT22;38340;52.964;6.086;2023-11-21T10:51:17;9.10;99.90
52415;DHT22;38340;52.964;6.086;2023-11-21T10:53:44;9.10;99.90
52415;DHT22;38340;52.964;6.086;2023-11-21T10:56:14;9.10;99.90
52415;DHT22;38340;52.964;6.086;2023-11-21T10:58:45;9.10;99.90
52415;DHT22;38340;52.964;6.086;2023-11-21T11:01:11;9.10;99.90
52415;DHT22;38340;52.964;6.086;2023-11-21T11:03:39;9.10;99.90
52415;DHT22;38340;52.964;6.086;2023-11-21T11:06:07;9.10;99.90
52415;DHT22;38340;52.964;6.086;2023-11-21T11:08:40;9.10;99.90
52415;DHT22;38340;52.964;6.086;2023-11-21T11:11:07;9.00;99.90
52415;DHT22;38340;52.964;6.086;2023-11-21T11:13:33;9.10;99.90
52415;DHT22;38340;52.964;6.086;2023-11-21T11:15:59;9.10;99.90
52415;DHT22;38340;52.964;6.086;2023-11-21T11:18:30;9.10;99.90
52415;DHT22;38340;52.964;6.086;2023-11-21T11:21:51;9.10;99.90
52415;DHT22;38340;52.964;6.086;2023-11-21T11:30:16;9.00;99.90
52415;DHT22;38340;52.964;6.086;2023-11-21T11:33:07;8.90;99.90
52415;DHT22;38340;52.964;6.086;2023-11-21T11:38:22;8.80;99.90
52415;DHT22;38340;52.964;6.086;2023-11-21T11:40:52;8.80;99.90
52415;DHT22;38340;52.964;6.086;2023-11-21T11:43:25;8.70;99.90
52415;DHT22;38340;52.964;6.086;2023-11-21T11:45:51;8.70;99.90
52415;DHT22;38340;52.964;6.086;2023-11-21T11:48:18;8.60;99.90
52415;DHT22;38340;52.964;6.086;2023-11-21T11:51:12;8.60;99.90
52415;DHT22;38340;52.964;6.086;2023-11-21T11:53:44;8.50;99.90
52415;DHT22;38340;52.964;6.086;2023-11-21T11:56:27;8.50;99.90
52415;DHT22;38340;52.964;6.086;2023-11-21T11:58:58;8.50;99.90
52415;DHT22;38340;52.964;6.086;2023-11-21T12:01:26;8.50;99.90
52415;DHT22;38340;52.964;6.086;2023-11-21T12:06:41;8.50;99.90
52415;DHT22;38340;52.964;6.086;2023-11-21T12:09:10;8.60;99.90
52415;DHT22;38340;52.964;6.086;2023-11-21T12:11:41;8.60;99.90
52415;DHT22;38340;52.964;6.086;2023-11-21T12:14:09;8.70;99.90
52415;DHT22;38340;52.964;6.086;2023-11-21T12:16:35;8.70;99.90
52415;DHT22;38340;52.964;6.086;2023-11-21T12:19:01;8.70;99.90
52415;DHT22;38340;52.964;6.086;2023-11-21T12:21:28;8.70;99.90
52415;DHT22;38340;52.964;6.086;2023-11-21T12:23:54;8.70;99.90
52415;DHT22;38340;52.964;6.086;2023-11-21T12:26:23;8.70;99.90
52415;DHT22;38340;52.964;6.086;2023-11-21T12:28:55;8.70;99.90
52415;DHT22;38340;52.964;6.086;2023-11-21T12:31:22;8.70;99.90
52415;DHT22;38340;52.964;6.086;2023-11-21T12:33:47;8.80;99.90
52415;DHT22;38340;52.964;6.086;2023-11-21T12:36:13;8.80;99.90
52415;DHT22;38340;52.964;6.086;2023-11-21T12:38:39;8.90;99.90
52415;DHT22;38340;52.964;6.086;2023-11-21T12:41:06;8.90;99.90
52415;DHT22;38340;52.964;6.086;2023-11-21T12:43:32;8.90;99.90
52415;DHT22;38340;52.964;6.086;2023-11-21T12:46:06;9.00;99.90
52415;DHT22;38340;52.964;6.086;2023-11-21T12:48:32;9.00;99.90
52415;DHT22;38340;52.964;6.086;2023-11-21T12:50:57;9.00;99.90
52415;DHT22;38340;52.964;6.086;2023-11-21T12:53:26;9.00;99.90
52415;DHT22;38340;52.964;6.086;2023-11-21T12:55:51;8.90;99.90
52415;DHT22;38340;52.964;6.086;2023-11-21T12:58:24;9.00;99.90
52415;DHT22;38340;52.964;6.086;2023-11-21T13:00:50;8.90;99.90
52415;DHT22;38340;52.964;6.086;2023-11-21T13:03:19;8.90;99.90
52415;DHT22;38340;52.964;6.086;2023-11-21T13:05:51;8.80;99.90
52415;DHT22;38340;52.964;6.086;2023-11-21T13:08:20;8.70;99.90
52415;DHT22;38340;52.964;6.086;2023-11-21T13:10:51;8.70;99.90
52415;DHT22;38340;52.964;6.086;2023-11-21T13:13:17;8.70;99.90
52415;DHT22;38340;52.964;6.086;2023-11-21T13:16:02;8.60;99.90
52415;DHT22;38340;52.964;6.086;2023-11-21T13:18:31;8.50;99.90
52415;DHT22;38340;52.964;6.086;2023-11-21T13:20:59;8.50;99.90
52415;DHT22;38340;52.964;6.086;2023-11-21T13:23:26;8.50;99.90
52415;DHT22;38340;52.964;6.086;2023-11-21T13:25:53;8.60;99.90
52415;DHT22;38340;52.964;6.086;2023-11-21T13:28:18;8.60;99.90
52415;DHT22;38340;52.964;6.086;2023-11-21T13:30:47;8.70;99.90
52415;DHT22;38340;52.964;6.086;2023-11-21T13:33:14;8.70;99.90
52415;DHT22;38340;52.964;6.086;2023-11-21T13:35:44;8.80;99.90
52415;DHT22;38340;52.964;6.086;2023-11-21T13:38:15;8.80;99.90
52415;DHT22;38340;52.964;6.086;2023-11-21T13:40:50;8.80;99.90
52415;DHT22;38340;52.964;6.086;2023-11-21T13:43:22;8.70;99.90
52415;DHT22;38340;52.964;6.086;2023-11-21T13:45:50;8.60;99.90
52415;DHT22;38340;52.964;6.086;2023-11-21T13:48:21;8.60;99.90
52415;DHT22;38340;52.964;6.086;2023-11-21T13:50:53;8.50;99.90
52415;DHT22;38340;52.964;6.086;2023-11-21T13:53:24;8.60;99.90
52415;DHT22;38340;52.964;6.086;2023-11-21T13:55:51;8.60;99.90
52415;DHT22;38340;52.964;6.086;2023-11-21T13:58:20;8.70;99.90
52415;DHT22;38340;52.964;6.086;2023-11-21T14:00:50;8.80;99.90
52415;DHT22;38340;52.964;6.086;2023-11-21T14:03:22;8.80;99.90
52415;DHT22;38340;52.964;6.086;2023-11-21T14:05:50;8.90;99.90
52415;DHT22;38340;52.964;6.086;2023-11-21T14:08:22;8.90;99.90
52415;DHT22;38340;52.964;6.086;2023-11-21T14:10:54;8.90;99.90
52415;DHT22;38340;52.964;6.086;2023-11-21T14:13:29;8.80;99.90
52415;DHT22;38340;52.964;6.086;2023-11-21T14:15:55;8.80;99.90
52415;DHT22;38340;52.964;6.086;2023-11-21T14:18:26;8.80;99.90
52415;DHT22;38340;52.964;6.086;2023-11-21T14:21:16;8.70;99.90
52415;DHT22;38340;52.964;6.086;2023-11-21T14:23:42;8.70;99.90
52415;DHT22;38340;52.964;6.086;2023-11-21T14:26:09;8.70;99.90
52415;DHT22;38340;52.964;6.086;2023-11-21T14:28:39;8.70;99.90
52415;DHT22;38340;52.964;6.086;2023-11-21T14:31:04;8.70;99.90
52415;DHT22;38340;52.964;6.086;2023-11-21T14:33:30;8.60;99.90
52415;DHT22;38340;52.964;6.086;2023-11-21T14:35:56;8.60;99.90
52415;DHT22;38340;52.964;6.086;2023-11-21T14:38:23;8.60;99.90
52415;DHT22;38340;52.964;6.086;2023-11-21T14:40:48;8.60;99.90
52415;DHT22;38340;52.964;6.086;2023-11-21T14:43:15;8.50;99.90
52415;DHT22;38340;52.964;6.086;2023-11-21T14:45:41;8.50;99.90
52415;DHT22;38340;52.964;6.086;2023-11-21T14:48:07;8.50;99.90
52415;DHT22;38340;52.964;6.086;2023-11-21T14:50:34;8.50;99.90
52415;DHT22;38340;52.964;6.086;2023-11-21T14:53:25;8.60;99.90
52415;DHT22;38340;52.964;6.086;2023-11-21T14:56:10;8.60;99.90
52415;DHT22;38340;52.964;6.086;2023-11-21T14:58:35;8.50;99.90
52415;DHT22;38340;52.964;6.086;2023-11-21T15:01:03;8.50;99.90
52415;DHT22;38340;52.964;6.086;2023-11-21T15:03:29;8.50;99.90
52415;DHT22;38340;52.964;6.086;2023-11-21T15:05:58;8.50;99.90
52415;DHT22;38340;52.964;6.086;2023-11-21T15:08:24;8.50;99.90
52415;DHT22;38340;52.964;6.086;2023-11-21T15:10:57;8.50;99.90
52415;DHT22;38340;52.964;6.086;2023-11-21T15:13:23;8.40;99.90
52415;DHT22;38340;52.964;6.086;2023-11-21T15:15:51;8.30;99.90
52415;DHT22;38340;52.964;6.086;2023-11-21T15:18:20;8.30;99.90
52415;DHT22;38340;52.964;6.086;2023-11-21T15:20:46;8.20;99.90
52415;DHT22;38340;52.964;6.086;2023-11-21T15:23:12;8.10;99.90
52415;DHT22;38340;52.964;6.086;2023-11-21T15:25:38;8.10;99.90
52415;DHT22;38340;52.964;6.086;2023-11-21T15:28:04;8.00;99.90
52415;DHT22;38340;52.964;6.086;2023-11-21T15:30:31;7.90;99.90
52415;DHT22;38340;52.964;6.086;2023-11-21T15:33:00;7.80;99.90
52415;DHT22;38340;52.964;6.086;2023-11-21T15:35:26;7.80;99.90
52415;DHT22;38340;52.964;6.086;2023-11-21T15:37:54;7.80;99.90
52415;DHT22;38340;52.964;6.086;2023-11-21T15:40:23;7.80;99.90
52415;DHT22;38340;52.964;6.086;2023-11-21T15:42:49;7.70;99.90
52415;DHT22;38340;52.964;6.086;2023-11-21T15:45:15;7.80;99.90
52415;DHT22;38340;52.964;6.086;2023-11-21T15:47:44;7.80;99.90
52415;DHT22;38340;52.964;6.086;2023-11-21T15:50:10;7.80;99.90
52415;DHT22;38340;52.964;6.086;2023-11-21T15:52:36;7.80;99.90
52415;DHT22;38340;52.964;6.086;2023-11-21T15:55:02;7.80;99.90
52415;DHT22;38340;52.964;6.086;2023-11-21T15:57:28;7.80;99.90
52415;DHT22;38340;52.964;6.086;2023-11-21T15:59:54;7.90;99.90
52415;DHT22;38340;52.964;6.086;2023-11-21T16:02:20;7.90;99.90